Dal Kalahari — A8FQ8 — position and weather

sailwx.info

Track history (hours):
 
Tides and Currents Weather Stations Pressure Air Temp Water Temp Dewpoint Dewpoint Depression Visibility Wind Speed Wind Dir Waves Ship Positions

Dal Kalahari

Last reported at 2014-Dec-13 22:33 UTC. Time now 2014-Dec-19 02:19 UTC.
Position S 26°39' E 153°15'.

Length 266 m; beam 37 m; draft 12.5 m.

Type: Ship (hazmat cat C). MMSI: 636090797.

Date/timePositionNaut miles runAvg speedWind from/ knotsBaromVisibWave heightAir tempDewpointWater temp
2014-Dec-13 22:33S 26°39' E 153°15'1313.2
2014-Dec-13 21:34S 26°51' E 153°09'1817.6
2014-Dec-13 20:33S 27°06' E 153°19'1616.1
2014-Dec-13 19:33S 27°20' E 153°11'2 1.7
2014-Dec-13 18:33S 27°22' E 153°11'0 0.0
2014-Dec-13 17:33S 27°22' E 153°11'0 0.0
2014-Dec-13 16:33S 27°22' E 153°11'0 0.0
2014-Dec-13 15:33S 27°22' E 153°11'0 0.0
2014-Dec-13 14:33S 27°22' E 153°11'0 0.0
2014-Dec-13 13:33S 27°22' E 153°11'0 0.0
2014-Dec-13 12:33S 27°22' E 153°11'0 0.0
2014-Dec-13 11:33S 27°22' E 153°11'0 0.0
2014-Dec-13 10:33S 27°22' E 153°11'0 0.0
2014-Dec-13 09:33S 27°22' E 153°11'0 0.0
2014-Dec-13 08:22S 27°22' E 153°11'0 0.0
2014-Dec-13 07:33S 27°22' E 153°11'0 0.0
2014-Dec-13 06:33S 27°22' E 153°11'0 0.0
2014-Dec-13 05:33S 27°22' E 153°11'0 0.0
2014-Dec-13 04:33S 27°22' E 153°11'4 3.8
2014-Dec-13 03:33S 27°19' E 153°13'1313.1
2014-Dec-13 02:34S 27°08' E 153°21'1413.6
2014-Dec-13 01:34S 26°56' E 153°12'1312.8
2014-Dec-13 00:33S 26°44' E 153°10'8 7.5
2014-Dec-12 23:33S 26°45' E 153°19'2019.8
2014-Dec-12 22:33S 26°58' E 153°36'2121.3
2014-Dec-12 21:33S 27°19' E 153°40'2221.7
2014-Dec-12 20:32S 27°41' E 153°41'29919.4
2014-Dec-12 05:08S 32°34' E 152°36'1219.6
2014-Dec-12 04:31S 32°45' E 152°28'1919.9
2014-Dec-12 03:34S 33°00' E 152°15'2020.0
2014-Dec-12 02:33S 33°17' E 152°01'  
2014-Dec-09 14:09S 37°19' E 150°14'6 6.8
2014-Dec-09 13:13S 37°25' E 150°11'8 7.4
2014-Dec-09 12:08S 37°33' E 150°09'4 7.0
2014-Dec-09 11:33S 37°37' E 150°06'8 7.7
2014-Dec-09 10:33S 37°42' E 149°59'9 8.6
2014-Dec-09 09:33S 37°47' E 149°50'9 9.0
2014-Dec-09 08:33S 37°53' E 149°41'9 8.6
2014-Dec-09 07:32S 37°58' E 149°33'137 9.1
2014-Dec-08 16:33S 39°08' E 147°02'10 9.6
2014-Dec-08 15:33S 39°11' E 146°51'9 9.3
2014-Dec-08 14:34S 39°15' E 146°40'9 9.0
2014-Dec-08 13:34S 39°17' E 146°28'9 9.0
2014-Dec-08 12:34S 39°17' E 146°17'8 8.4
2014-Dec-08 11:34S 39°15' E 146°06'9 8.6
2014-Dec-08 10:34S 39°10' E 145°57'9 8.7
2014-Dec-08 09:34S 39°05' E 145°48'9 8.5
2014-Dec-08 08:33S 38°60' E 145°39'  
2014-Dec-05 23:05S 38°51' E 142°38'712.2
2014-Dec-05 22:31S 38°50' E 142°29'1111.9
2014-Dec-05 21:33S 38°48' E 142°14'1211.8
2014-Dec-05 20:33S 38°46' E 141°60'  
Track history (hours):
 
Tides and Currents Weather Stations Pressure Air Temp Water Temp Dewpoint Dewpoint Depression Visibility Wind Speed Wind Dir Waves Ship Positions

Dal Kalahari

Last reported at 2014-Dec-13 22:33 UTC. Time now 2014-Dec-19 02:19 UTC.
Position S 26°39' E 153°15'.

Length 266 m; beam 37 m; draft 12.5 m.

Type: Ship (hazmat cat C). MMSI: 636090797.

Date/timePositionNaut miles runAvg speedWind from/ knotsBaromVisibWave heightAir tempDewpointWater temp
2014-Dec-13 22:33S 26°39' E 153°15'1313.2
2014-Dec-13 21:34S 26°51' E 153°09'1817.6
2014-Dec-13 20:33S 27°06' E 153°19'1616.1
2014-Dec-13 19:33S 27°20' E 153°11'2 1.7
2014-Dec-13 18:33S 27°22' E 153°11'0 0.0
2014-Dec-13 17:33S 27°22' E 153°11'0 0.0
2014-Dec-13 16:33S 27°22' E 153°11'0 0.0
2014-Dec-13 15:33S 27°22' E 153°11'0 0.0
2014-Dec-13 14:33S 27°22' E 153°11'0 0.0
2014-Dec-13 13:33S 27°22' E 153°11'0 0.0
2014-Dec-13 12:33S 27°22' E 153°11'0 0.0
2014-Dec-13 11:33S 27°22' E 153°11'0 0.0
2014-Dec-13 10:33S 27°22' E 153°11'0 0.0
2014-Dec-13 09:33S 27°22' E 153°11'0 0.0
2014-Dec-13 08:22S 27°22' E 153°11'0 0.0
2014-Dec-13 07:33S 27°22' E 153°11'0 0.0
2014-Dec-13 06:33S 27°22' E 153°11'0 0.0
2014-Dec-13 05:33S 27°22' E 153°11'0 0.0
2014-Dec-13 04:33S 27°22' E 153°11'4 3.8
2014-Dec-13 03:33S 27°19' E 153°13'1313.1
2014-Dec-13 02:34S 27°08' E 153°21'1413.6
2014-Dec-13 01:34S 26°56' E 153°12'1312.8
2014-Dec-13 00:33S 26°44' E 153°10'8 7.5
2014-Dec-12 23:33S 26°45' E 153°19'2019.8
2014-Dec-12 22:33S 26°58' E 153°36'2121.3
2014-Dec-12 21:33S 27°19' E 153°40'2221.7
2014-Dec-12 20:32S 27°41' E 153°41'29919.4
2014-Dec-12 05:08S 32°34' E 152°36'1219.6
2014-Dec-12 04:31S 32°45' E 152°28'1919.9
2014-Dec-12 03:34S 33°00' E 152°15'2020.0
2014-Dec-12 02:33S 33°17' E 152°01'  
2014-Dec-09 14:09S 37°19' E 150°14'6 6.8
2014-Dec-09 13:13S 37°25' E 150°11'8 7.4
2014-Dec-09 12:08S 37°33' E 150°09'4 7.0
2014-Dec-09 11:33S 37°37' E 150°06'8 7.7
2014-Dec-09 10:33S 37°42' E 149°59'9 8.6
2014-Dec-09 09:33S 37°47' E 149°50'9 9.0
2014-Dec-09 08:33S 37°53' E 149°41'9 8.6
2014-Dec-09 07:32S 37°58' E 149°33'137 9.1
2014-Dec-08 16:33S 39°08' E 147°02'10 9.6
2014-Dec-08 15:33S 39°11' E 146°51'9 9.3
2014-Dec-08 14:34S 39°15' E 146°40'9 9.0
2014-Dec-08 13:34S 39°17' E 146°28'9 9.0
2014-Dec-08 12:34S 39°17' E 146°17'8 8.4
2014-Dec-08 11:34S 39°15' E 146°06'9 8.6
2014-Dec-08 10:34S 39°10' E 145°57'9 8.7
2014-Dec-08 09:34S 39°05' E 145°48'9 8.5
2014-Dec-08 08:33S 38°60' E 145°39'  
2014-Dec-05 23:05S 38°51' E 142°38'712.2
2014-Dec-05 22:31S 38°50' E 142°29'1111.9
2014-Dec-05 21:33S 38°48' E 142°14'1211.8
2014-Dec-05 20:33S 38°46' E 141°60'  

Dump ship's entire track history